createdAt,value
2019-04-29T00:00:37.007Z,"  75.77"
2019-04-29T00:01:36.981Z,"  75.67"
2019-04-29T00:02:36.986Z,"  75.41"
2019-04-29T00:03:36.999Z,"  75.43"
2019-04-29T00:04:37.056Z,"  75.85"
2019-04-29T00:05:36.918Z,"  75.84"
2019-04-29T00:06:36.940Z,"  76.36"
2019-04-29T00:07:37.331Z,"  76.43"
2019-04-29T00:08:36.970Z,"  76.42"
2019-04-29T00:09:36.933Z,"  76.47"
2019-04-29T00:10:36.929Z,"  76.67"
2019-04-29T00:11:36.933Z,"  76.40"
2019-04-29T00:12:36.920Z,"  76.35"
2019-04-29T00:13:36.926Z,"  76.02"
2019-04-29T00:14:36.941Z,"  76.22"
2019-04-29T00:15:36.925Z,"  76.32"
2019-04-29T00:16:36.915Z,"  75.78"
2019-04-29T00:17:36.906Z,"  75.77"
2019-04-29T00:18:36.932Z,"  76.01"
2019-04-29T00:19:36.917Z,"  76.13"
2019-04-29T00:20:36.911Z,"  76.01"
2019-04-29T00:21:36.901Z,"  76.10"
2019-04-29T00:22:36.933Z,"  75.95"
2019-04-29T00:23:36.920Z,"  76.43"
2019-04-29T00:24:36.915Z,"  76.40"
2019-04-29T00:25:37.066Z,"  76.23"
2019-04-29T00:26:36.925Z,"  76.82"
2019-04-29T00:27:36.946Z,"  77.18"
2019-04-29T00:28:36.922Z,"  77.11"
2019-04-29T00:29:36.895Z,"  76.96"
2019-04-29T00:30:36.938Z,"  77.00"
2019-04-29T00:31:36.958Z,"  77.41"
2019-04-29T00:32:36.942Z,"  76.78"
2019-04-29T00:33:36.941Z,"  77.05"
2019-04-29T00:34:36.898Z,"  77.31"
2019-04-29T00:35:36.927Z,"  77.54"
2019-04-29T00:36:36.877Z,"  76.92"
2019-04-29T00:37:36.915Z,"  76.87"
2019-04-29T00:38:36.924Z,"  76.53"
2019-04-29T00:39:36.903Z,"  76.80"
2019-04-29T00:40:36.922Z,"  77.12"
2019-04-29T00:41:36.893Z,"  77.03"
2019-04-29T00:42:36.882Z,"  76.68"
2019-04-29T00:43:36.937Z,"  76.76"
2019-04-29T00:44:37.010Z,"  77.67"
2019-04-29T00:45:36.873Z,"  77.63"
2019-04-29T00:46:37.281Z,"  77.82"
2019-04-29T00:47:36.880Z,"  77.31"
2019-04-29T00:48:36.893Z,"  77.58"
2019-04-29T00:49:36.898Z,"  77.07"
2019-04-29T00:50:36.881Z,"  76.89"
2019-04-29T00:51:36.861Z,"  77.27"
2019-04-29T00:52:36.866Z,"  77.16"
2019-04-29T00:53:36.905Z,"  77.00"
2019-04-29T00:54:36.853Z,"  77.22"
2019-04-29T00:55:36.844Z,"  77.58"
2019-04-29T00:56:36.997Z,"  77.25"
2019-04-29T00:57:36.926Z,"  77.10"
2019-04-29T00:58:36.872Z,"  77.07"
2019-04-29T00:59:36.854Z,"  77.29"
2019-04-29T01:00:36.850Z,"  77.51"
2019-04-29T01:01:36.849Z,"  77.05"
2019-04-29T01:02:36.845Z,"  76.95"
2019-04-29T01:03:36.868Z,"  76.81"
2019-04-29T01:04:36.865Z,"  76.87"
2019-04-29T01:05:36.850Z,"  76.67"
2019-04-29T01:06:36.846Z,"  77.31"
2019-04-29T01:07:37.106Z,"  76.93"
2019-04-29T01:08:36.921Z,"  77.50"
2019-04-29T01:09:36.852Z,"  77.33"
2019-04-29T01:10:36.879Z,"  77.13"
2019-04-29T01:11:36.836Z,"  77.05"
2019-04-29T01:12:36.850Z,"  77.50"
2019-04-29T01:13:36.877Z,"  77.76"
2019-04-29T01:14:36.827Z,"  77.92"
2019-04-29T01:15:36.879Z,"  78.18"
2019-04-29T01:16:36.817Z,"  78.05"
2019-04-29T01:17:36.842Z,"  78.00"
2019-04-29T01:18:36.834Z,"  78.00"
2019-04-29T01:19:36.825Z,"  77.43"
2019-04-29T01:20:36.885Z,"  77.62"
2019-04-29T01:21:36.816Z,"  77.42"
2019-04-29T01:22:36.842Z,"  77.66"
2019-04-29T01:23:36.850Z,"  77.99"
2019-04-29T01:24:36.865Z,"  78.28"
2019-04-29T01:25:36.872Z,"  78.27"
2019-04-29T01:26:36.815Z,"  78.19"
2019-04-29T01:27:36.838Z,"  78.58"
2019-04-29T01:28:36.819Z,"  78.42"
2019-04-29T01:29:36.910Z,"  78.32"
2019-04-29T01:30:36.838Z,"  78.41"
2019-04-29T01:31:36.827Z,"  78.73"
2019-04-29T01:32:36.825Z,"  78.64"
2019-04-29T01:33:36.824Z,"  78.69"
2019-04-29T01:34:36.816Z,"  78.37"
2019-04-29T01:35:37.106Z,"  78.13"
2019-04-29T01:36:36.798Z,"  78.16"
2019-04-29T01:37:36.809Z,"  78.97"
2019-04-29T01:38:36.810Z,"  79.21"
2019-04-29T01:39:36.807Z,"  79.00"
2019-04-29T01:40:36.829Z,"  78.35"
2019-04-29T01:41:36.865Z,"  78.51"
2019-04-29T01:42:36.932Z,"  78.72"
2019-04-29T01:43:36.792Z,"  78.66"
2019-04-29T01:44:36.789Z,"  78.53"
2019-04-29T01:45:36.834Z,"  78.10"
2019-04-29T01:46:36.794Z,"  78.10"
2019-04-29T01:47:36.802Z,"  78.14"
2019-04-29T01:48:36.781Z,"  78.39"
2019-04-29T01:49:36.805Z,"  78.06"
2019-04-29T01:50:36.926Z,"  78.43"
2019-04-29T01:51:36.828Z,"  78.48"
2019-04-29T01:52:36.785Z,"  78.66"
2019-04-29T01:53:36.803Z,"  78.71"
2019-04-29T01:54:36.815Z,"  78.62"
2019-04-29T01:55:36.766Z,"  78.49"
2019-04-29T01:56:36.773Z,"  78.42"
2019-04-29T01:57:36.764Z,"  78.86"
2019-04-29T01:58:36.762Z,"  78.04"
2019-04-29T01:59:36.753Z,"  78.49"
2019-04-29T02:00:36.780Z,"  78.64"
2019-04-29T02:01:36.790Z,"  78.33"
2019-04-29T02:02:36.781Z,"  78.15"
2019-04-29T02:03:36.765Z,"  77.96"
2019-04-29T02:04:36.777Z,"  78.23"
2019-04-29T02:05:36.786Z,"  78.31"
2019-04-29T02:06:36.781Z,"  77.97"
2019-04-29T02:07:36.766Z,"  77.77"
2019-04-29T02:08:36.777Z,"  77.64"
2019-04-29T02:09:36.809Z,"  77.82"
2019-04-29T02:10:36.753Z,"  78.04"
2019-04-29T02:11:36.773Z,"  78.31"
2019-04-29T02:12:36.777Z,"  78.35"
2019-04-29T02:13:36.766Z,"  77.87"
2019-04-29T02:14:36.801Z,"  78.13"
2019-04-29T02:15:37.676Z,"  77.70"
2019-04-29T02:16:36.753Z,"  77.77"
2019-04-29T02:17:36.762Z,"  77.87"
2019-04-29T02:18:36.737Z,"  78.11"
2019-04-29T02:19:36.747Z,"  78.95"
2019-04-29T02:20:36.726Z,"  79.04"
2019-04-29T02:21:36.729Z,"  79.01"
2019-04-29T02:22:36.764Z,"  78.94"
2019-04-29T02:23:36.729Z,"  78.72"
2019-04-29T02:24:36.752Z,"  78.99"
2019-04-29T02:25:36.758Z,"  79.48"
2019-04-29T02:26:36.745Z,"  79.58"
2019-04-29T02:27:36.763Z,"  79.36"
2019-04-29T02:28:36.727Z,"  79.00"
2019-04-29T02:29:36.721Z,"  79.44"
2019-04-29T02:30:36.724Z,"  80.56"
2019-04-29T02:31:36.729Z,"  80.77"
2019-04-29T02:32:36.756Z,"  79.90"
2019-04-29T02:33:36.733Z,"  80.00"
2019-04-29T02:34:36.871Z,"  80.16"
2019-04-29T02:35:36.731Z,"  79.71"
2019-04-29T02:36:36.732Z,"  79.52"
2019-04-29T02:37:36.728Z,"  80.25"
2019-04-29T02:38:36.709Z,"  79.83"
2019-04-29T02:39:36.704Z,"  79.64"
2019-04-29T02:40:36.716Z,"  79.65"
2019-04-29T02:41:36.685Z,"  79.98"
2019-04-29T02:42:36.729Z,"  80.29"
2019-04-29T02:43:36.700Z,"  81.34"
2019-04-29T02:44:36.730Z,"  80.71"
2019-04-29T02:45:36.698Z,"  80.31"
2019-04-29T02:46:36.739Z,"  80.69"
2019-04-29T02:47:36.761Z,"  80.01"
2019-04-29T02:48:36.707Z,"  80.05"
2019-04-29T02:49:36.717Z,"  81.07"
2019-04-29T02:50:36.716Z,"  80.81"
2019-04-29T02:51:36.703Z,"  80.29"
2019-04-29T02:52:36.697Z,"  80.55"
2019-04-29T02:53:36.711Z,"  80.50"
2019-04-29T02:54:36.718Z,"  80.82"
2019-04-29T02:55:36.712Z,"  80.72"
2019-04-29T02:56:36.711Z,"  80.77"
2019-04-29T02:57:36.711Z,"  80.68"
2019-04-29T02:58:36.734Z,"  80.67"
2019-04-29T02:59:36.713Z,"  80.46"
2019-04-29T03:00:36.719Z,"  80.07"
2019-04-29T03:01:36.719Z,"  80.32"
2019-04-29T03:02:36.710Z,"  80.45"
2019-04-29T03:03:36.686Z,"  80.46"
2019-04-29T03:04:36.712Z,"  81.33"
2019-04-29T03:05:39.885Z,"  80.73"
2019-04-29T03:06:36.724Z,"  80.89"
2019-04-29T03:07:36.713Z,"  81.39"
2019-04-29T03:08:36.734Z,"  81.35"
2019-04-29T03:09:36.699Z,"  80.67"
2019-04-29T03:10:37.058Z,"  81.21"
2019-04-29T03:11:36.718Z,"  81.13"
2019-04-29T03:12:36.703Z,"  81.09"
2019-04-29T03:13:36.664Z,"  80.93"
2019-04-29T03:14:36.731Z,"  81.17"
2019-04-29T03:15:36.693Z,"  81.66"
2019-04-29T03:16:37.059Z,"  80.94"
2019-04-29T03:17:36.704Z,"  80.45"
2019-04-29T03:18:36.692Z,"  80.52"
2019-04-29T03:19:36.671Z,"  81.55"
2019-04-29T03:20:36.708Z,"  80.59"
2019-04-29T03:21:36.679Z,"  80.89"
2019-04-29T03:22:36.666Z,"  80.99"
2019-04-29T03:23:36.692Z,"  81.02"
2019-04-29T03:24:36.676Z,"  80.83"
2019-04-29T03:25:36.706Z,"  80.47"
2019-04-29T03:26:36.642Z,"  80.81"
2019-04-29T03:27:36.659Z,"  80.54"
2019-04-29T03:28:36.639Z,"  80.23"
2019-04-29T03:29:36.654Z,"  80.26"
2019-04-29T03:30:36.675Z,"  80.48"
2019-04-29T03:31:39.357Z,"  80.99"
2019-04-29T03:32:36.655Z,"  80.24"
2019-04-29T03:33:36.642Z,"  80.14"
2019-04-29T03:34:36.680Z,"  80.57"
2019-04-29T03:35:36.631Z,"  80.92"
2019-04-29T03:36:36.725Z,"  80.64"
2019-04-29T03:37:36.640Z,"  80.64"
2019-04-29T03:38:36.916Z,"  80.03"
2019-04-29T03:39:36.635Z,"  80.44"
2019-04-29T03:40:36.645Z,"  80.65"
2019-04-29T03:41:36.629Z,"  81.01"
2019-04-29T03:42:36.635Z,"  81.33"
2019-04-29T03:43:36.649Z,"  80.86"
2019-04-29T03:44:36.647Z,"  80.89"
2019-04-29T03:45:36.647Z,"  81.58"
2019-04-29T03:46:36.623Z,"  81.47"
2019-04-29T03:47:36.676Z,"  81.97"
2019-04-29T03:48:36.616Z,"  82.58"
2019-04-29T03:49:36.606Z,"  82.86"
2019-04-29T03:50:36.615Z,"  82.63"
2019-04-29T03:51:36.622Z,"  82.16"
2019-04-29T03:52:36.673Z,"  82.40"
2019-04-29T03:53:36.641Z,"  82.42"
2019-04-29T03:54:36.605Z,"  83.19"
2019-04-29T03:55:39.886Z,"  82.72"
2019-04-29T03:56:36.601Z,"  82.82"
2019-04-29T03:57:36.678Z,"  82.38"
2019-04-29T03:58:36.614Z,"  82.26"
2019-04-29T03:59:37.026Z,"  82.57"
2019-04-29T04:00:36.620Z,"  82.09"
2019-04-29T04:01:36.684Z,"  82.39"
2019-04-29T04:02:36.615Z,"  82.69"
2019-04-29T04:03:36.589Z,"  82.51"
2019-04-29T04:04:36.596Z,"  82.33"
2019-04-29T04:05:36.622Z,"  82.25"
2019-04-29T04:06:36.604Z,"  82.20"
2019-04-29T04:07:36.630Z,"  82.79"
2019-04-29T04:08:36.583Z,"  82.38"
2019-04-29T04:09:36.581Z,"  82.71"
2019-04-29T04:10:36.568Z,"  82.12"
2019-04-29T04:11:36.576Z,"  82.63"
2019-04-29T04:12:36.624Z,"  82.27"
2019-04-29T04:13:36.589Z,"  82.31"
2019-04-29T04:14:36.564Z,"  81.95"
2019-04-29T04:15:36.573Z,"  82.45"
2019-04-29T04:16:36.581Z,"  82.78"
2019-04-29T04:17:36.587Z,"  83.02"
2019-04-29T04:18:36.598Z,"  82.27"
2019-04-29T04:19:36.605Z,"  82.10"
2019-04-29T04:20:36.616Z,"  82.93"
2019-04-29T04:21:36.617Z,"  83.06"
2019-04-29T04:22:36.574Z,"  82.50"
2019-04-29T04:23:36.579Z,"  83.17"
2019-04-29T04:24:36.554Z,"  83.74"
2019-04-29T04:25:36.550Z,"  83.34"
2019-04-29T04:26:36.552Z,"  83.20"
2019-04-29T04:27:36.547Z,"  83.07"
2019-04-29T04:28:36.572Z,"  83.74"
2019-04-29T04:29:36.553Z,"  83.74"
2019-04-29T04:30:36.561Z,"  83.29"
2019-04-29T04:31:36.559Z,"  82.83"
2019-04-29T04:32:36.562Z,"  82.63"
2019-04-29T04:33:36.555Z,"  83.29"
2019-04-29T04:34:36.555Z,"  83.29"
2019-04-29T04:35:36.575Z,"  82.60"
2019-04-29T04:36:36.563Z,"  83.39"
2019-04-29T04:37:36.551Z,"  83.07"
2019-04-29T04:38:36.560Z,"  82.61"
2019-04-29T04:39:36.551Z,"  82.91"
2019-04-29T04:40:36.609Z,"  82.96"
2019-04-29T04:41:36.586Z,"  83.30"
2019-04-29T04:42:36.726Z,"  82.55"
2019-04-29T04:43:36.543Z,"  83.40"
2019-04-29T04:44:36.525Z,"  83.42"
2019-04-29T04:45:36.542Z,"  83.17"
2019-04-29T04:46:36.809Z,"  83.99"
2019-04-29T04:47:36.578Z,"  82.65"
2019-04-29T04:48:36.517Z,"  83.53"
2019-04-29T04:49:36.518Z,"  83.50"
2019-04-29T04:50:36.539Z,"  82.79"
2019-04-29T04:51:36.742Z,"  82.95"
2019-04-29T04:52:36.542Z,"  82.64"
2019-04-29T04:53:36.510Z,"  82.78"
2019-04-29T04:54:36.504Z,"  82.98"
2019-04-29T04:55:36.520Z,"  82.14"
2019-04-29T04:56:36.625Z,"  82.88"
2019-04-29T04:57:36.569Z,"  82.46"
2019-04-29T04:58:36.510Z,"  82.42"
2019-04-29T04:59:36.513Z,"  82.76"
2019-04-29T05:00:36.506Z,"  83.10"
2019-04-29T05:01:36.530Z,"  83.62"
2019-04-29T05:02:36.519Z,"  83.09"
2019-04-29T05:03:36.490Z,"  82.33"
2019-04-29T05:04:36.619Z,"  82.52"
2019-04-29T05:05:36.497Z,"  82.88"
2019-04-29T05:06:36.527Z,"  83.71"
2019-04-29T05:07:36.505Z,"  83.25"
2019-04-29T05:08:36.497Z,"  82.87"
2019-04-29T05:09:36.514Z,"  82.92"
2019-04-29T05:10:36.506Z,"  83.72"
2019-04-29T05:11:36.513Z,"  83.75"
2019-04-29T05:12:36.480Z,"  84.03"
2019-04-29T05:13:36.498Z,"  84.30"
2019-04-29T05:14:36.495Z,"  84.40"
2019-04-29T05:15:36.535Z,"  84.65"
2019-04-29T05:16:36.482Z,"  84.89"
2019-04-29T05:17:36.488Z,"  84.86"
2019-04-29T05:18:36.489Z,"  85.05"
2019-04-29T05:19:36.485Z,"  84.80"
2019-04-29T05:20:36.527Z,"  84.46"
2019-04-29T05:21:36.525Z,"  83.96"
2019-04-29T05:22:36.473Z,"  83.85"
2019-04-29T05:23:36.487Z,"  84.04"
2019-04-29T05:24:36.474Z,"  83.90"
2019-04-29T05:25:36.497Z,"  84.12"
2019-04-29T05:26:36.766Z,"  83.71"
2019-04-29T05:27:36.482Z,"  83.83"
2019-04-29T05:28:36.486Z,"  83.80"
2019-04-29T05:29:36.496Z,"  83.39"
2019-04-29T05:30:36.482Z,"  83.76"
2019-04-29T05:31:36.815Z,"  83.48"
2019-04-29T05:32:36.466Z,"  83.14"
2019-04-29T05:33:36.469Z,"  83.04"
2019-04-29T05:34:36.458Z,"  83.79"
2019-04-29T05:35:36.471Z,"  83.77"
2019-04-29T05:36:38.145Z,"  83.87"
2019-04-29T05:37:36.472Z,"  83.95"
2019-04-29T05:38:36.482Z,"  83.52"
2019-04-29T05:39:36.466Z,"  83.45"
2019-04-29T05:40:36.487Z,"  83.55"
2019-04-29T05:41:36.771Z,"  83.11"
2019-04-29T05:42:36.462Z,"  82.74"
2019-04-29T05:43:36.449Z,"  83.47"
2019-04-29T05:44:36.452Z,"  85.02"
2019-04-29T05:45:36.453Z,"  84.79"
2019-04-29T05:46:36.490Z,"  84.79"
2019-04-29T05:47:36.563Z,"  85.10"
2019-04-29T05:48:36.440Z,"  85.04"
2019-04-29T05:49:37.520Z,"  84.33"
2019-04-29T05:50:36.429Z,"  84.66"
2019-04-29T05:51:36.743Z,"  85.69"
2019-04-29T05:52:39.566Z,"  86.57"
2019-04-29T05:53:36.440Z,"  86.45"
2019-04-29T05:54:36.427Z,"  85.43"
2019-04-29T05:55:36.454Z,"  85.34"
2019-04-29T05:56:36.471Z,"  85.62"
2019-04-29T05:57:36.435Z,"  84.62"
2019-04-29T05:58:37.929Z,"  84.24"
2019-04-29T05:59:36.425Z,"  84.70"
2019-04-29T06:00:36.458Z,"  84.32"
2019-04-29T06:01:36.438Z,"  83.90"
2019-04-29T06:02:38.851Z,"  83.71"
2019-04-29T06:03:38.021Z,"  83.96"
2019-04-29T06:04:36.421Z,"  84.53"
2019-04-29T06:05:36.405Z,"  84.51"
2019-04-29T06:06:36.626Z,"  84.80"
2019-04-29T06:07:36.435Z,"  85.52"
2019-04-29T06:08:39.188Z,"  84.73"
2019-04-29T06:09:36.758Z,"  84.70"
2019-04-29T06:10:36.411Z,"  84.96"
2019-04-29T06:11:36.431Z,"  85.33"
2019-04-29T06:12:36.419Z,"  85.37"
2019-04-29T06:13:36.390Z,"  85.38"
2019-04-29T06:14:36.401Z,"  84.85"
2019-04-29T06:15:36.445Z,"  85.00"
2019-04-29T06:16:36.426Z,"  84.84"
2019-04-29T06:17:40.100Z,"  84.84"
2019-04-29T06:18:36.398Z,"  84.87"
2019-04-29T06:19:39.448Z,"  85.32"
2019-04-29T06:20:36.448Z,"  84.82"
2019-04-29T06:21:36.425Z,"  85.63"
2019-04-29T06:22:37.932Z,"  85.38"
2019-04-29T06:23:36.406Z,"  85.16"
2019-04-29T06:24:36.838Z,"  84.65"
2019-04-29T06:25:36.387Z,"  84.72"
2019-04-29T06:26:36.416Z,"  84.59"
2019-04-29T06:27:36.405Z,"  84.83"
2019-04-29T06:28:36.389Z,"  84.25"
2019-04-29T06:29:36.369Z,"  85.16"
2019-04-29T06:30:40.182Z,"  84.80"
2019-04-29T06:31:36.373Z,"  85.28"
2019-04-29T06:32:36.427Z,"  85.42"
2019-04-29T06:33:36.358Z,"  84.83"
2019-04-29T06:34:40.204Z,"  84.55"
2019-04-29T06:35:36.387Z,"  84.56"
2019-04-29T06:36:36.370Z,"  85.08"
2019-04-29T06:37:36.390Z,"  84.48"
2019-04-29T06:38:36.374Z,"  85.11"
2019-04-29T06:39:36.362Z,"  84.78"
2019-04-29T06:40:36.947Z,"  84.89"
2019-04-29T06:41:40.237Z,"  85.24"
2019-04-29T06:42:36.390Z,"  85.09"
2019-04-29T06:43:36.383Z,"  84.92"
2019-04-29T06:44:36.366Z,"  84.81"
2019-04-29T06:45:36.352Z,"  84.96"
2019-04-29T06:46:36.353Z,"  85.25"
2019-04-29T06:47:36.353Z,"  85.63"
2019-04-29T06:48:36.362Z,"  85.27"
2019-04-29T06:49:36.357Z,"  85.72"
2019-04-29T06:50:36.366Z,"  85.01"
2019-04-29T06:51:36.449Z,"  85.11"
2019-04-29T06:52:36.745Z,"  85.40"
2019-04-29T06:53:36.373Z,"  86.76"
2019-04-29T06:54:36.359Z,"  86.49"
2019-04-29T06:55:36.343Z,"  86.70"
2019-04-29T06:56:36.366Z,"  85.97"
2019-04-29T06:57:36.354Z,"  86.09"
2019-04-29T06:58:36.852Z,"  85.67"
2019-04-29T06:59:36.385Z,"  87.02"
2019-04-29T07:00:36.345Z,"  86.50"
2019-04-29T07:01:37.516Z,"  85.85"
2019-04-29T07:02:36.369Z,"  86.33"
2019-04-29T07:03:36.597Z,"  86.56"
2019-04-29T07:04:39.511Z,"  87.04"
2019-04-29T07:05:36.325Z,"  86.99"
2019-04-29T07:06:36.320Z,"  87.18"
2019-04-29T07:07:36.339Z,"  86.29"
2019-04-29T07:08:36.370Z,"  87.15"
2019-04-29T07:09:36.342Z,"  87.31"
2019-04-29T07:10:36.328Z,"  87.47"
2019-04-29T07:11:36.963Z,"  87.10"
2019-04-29T07:12:36.354Z,"  86.86"
2019-04-29T07:13:37.186Z,"  86.69"
2019-04-29T07:14:38.539Z,"  87.56"
2019-04-29T07:15:36.315Z,"  86.62"
2019-04-29T07:16:36.308Z,"  87.34"
2019-04-29T07:17:40.827Z,"  87.12"
2019-04-29T07:18:39.828Z,"  86.69"
2019-04-29T07:19:36.309Z,"  86.24"
2019-04-29T07:20:37.235Z,"  86.65"
2019-04-29T07:21:36.350Z,"  86.53"
2019-04-29T07:22:36.332Z,"  86.26"
2019-04-29T07:23:36.298Z,"  86.09"
2019-04-29T07:24:36.326Z,"  86.52"
2019-04-29T07:25:36.323Z,"  87.66"
2019-04-29T07:26:36.305Z,"  87.95"
2019-04-29T07:27:43.010Z,"  87.62"
2019-04-29T07:28:36.283Z,"  88.36"
2019-04-29T07:29:38.024Z,"  87.90"
2019-04-29T07:30:39.189Z,"  87.64"
2019-04-29T07:31:36.283Z,"  87.77"
2019-04-29T07:32:36.282Z,"  88.37"
2019-04-29T07:33:36.294Z,"  87.87"
2019-04-29T07:34:39.359Z,"  88.09"
2019-04-29T07:35:38.131Z,"  88.51"
2019-04-29T07:36:36.270Z,"  88.62"
2019-04-29T07:37:36.294Z,"  89.24"
2019-04-29T07:38:41.521Z,"  88.40"
2019-04-29T07:39:36.312Z,"  88.35"
2019-04-29T07:40:38.730Z,"  88.55"
2019-04-29T07:41:36.262Z,"  87.59"
2019-04-29T07:42:36.354Z,"  88.11"
2019-04-29T07:43:38.543Z,"  88.43"
2019-04-29T07:44:43.851Z,"  87.84"
2019-04-29T07:45:43.958Z,"  87.79"
2019-04-29T07:46:55.168Z,"  87.41"
2019-04-29T07:47:36.262Z,"  88.27"
2019-04-29T07:48:36.813Z,"  88.48"
2019-04-29T07:49:36.265Z,"  88.12"
2019-04-29T07:50:36.313Z,"  87.93"
2019-04-29T07:51:39.504Z,"  87.60"
2019-04-29T07:52:36.250Z,"  87.19"
2019-04-29T07:53:44.734Z,"  87.03"
2019-04-29T07:54:36.241Z,"  87.29"
2019-04-29T07:55:36.285Z,"  87.72"
2019-04-29T07:56:37.849Z,"  87.95"
2019-04-29T07:57:36.494Z,"  87.75"
2019-04-29T07:58:36.269Z,"  87.79"
2019-04-29T07:59:38.326Z,"  87.41"
2019-04-29T08:00:36.334Z,"  86.87"
2019-04-29T08:01:36.247Z,"  87.18"
2019-04-29T08:02:36.393Z,"  87.00"
2019-04-29T08:03:36.280Z,"  86.74"
2019-04-29T08:04:36.241Z,"  86.37"
2019-04-29T08:05:36.294Z,"  86.67"
2019-04-29T08:06:38.086Z,"  86.54"
2019-04-29T08:07:36.245Z,"  86.31"
2019-04-29T08:08:36.261Z,"  86.46"
2019-04-29T08:09:39.850Z,"  86.42"
2019-04-29T08:10:36.450Z,"  86.33"
2019-04-29T08:11:36.229Z,"  86.53"
2019-04-29T08:12:36.240Z,"  86.25"
2019-04-29T08:13:36.226Z,"  85.45"
2019-04-29T08:14:36.221Z,"  85.01"
2019-04-29T08:15:36.751Z,"  85.01"
2019-04-29T08:16:36.233Z,"  85.15"
2019-04-29T08:17:36.239Z,"  84.85"
2019-04-29T08:18:36.492Z,"  84.49"
2019-04-29T08:19:36.249Z,"  84.95"
2019-04-29T08:20:39.822Z,"  84.52"
2019-04-29T08:21:36.210Z,"  84.50"
2019-04-29T08:22:36.350Z,"  84.15"
2019-04-29T08:23:41.155Z,"  84.08"
2019-04-29T08:24:37.493Z,"  83.94"
2019-04-29T08:25:36.241Z,"  83.77"
2019-04-29T08:26:38.100Z,"  83.84"
2019-04-29T08:27:40.749Z,"  84.53"
2019-04-29T08:28:36.209Z,"  84.20"
2019-04-29T08:29:37.380Z,"  84.00"
2019-04-29T08:30:36.224Z,"  83.60"
2019-04-29T08:31:36.259Z,"  82.85"
2019-04-29T08:32:36.548Z,"  83.39"
2019-04-29T08:33:36.325Z,"  83.20"
2019-04-29T08:34:36.257Z,"  83.19"
2019-04-29T08:35:36.779Z,"  83.03"
2019-04-29T08:36:36.253Z,"  83.02"
2019-04-29T08:37:36.257Z,"  82.76"
2019-04-29T08:38:36.196Z,"  82.66"
2019-04-29T08:39:36.229Z,"  82.60"
2019-04-29T08:40:36.260Z,"  82.14"
2019-04-29T08:41:36.430Z,"  82.24"
2019-04-29T08:42:37.223Z,"  82.31"
2019-04-29T08:43:36.194Z,"  82.29"
2019-04-29T08:44:36.191Z,"  82.15"
2019-04-29T08:45:39.112Z,"  82.05"
2019-04-29T08:46:36.234Z,"  81.61"
2019-04-29T08:47:36.218Z,"  81.61"
2019-04-29T08:48:36.178Z,"  81.68"
2019-04-29T08:49:36.192Z,"  81.50"
2019-04-29T08:50:36.186Z,"  81.58"
2019-04-29T08:51:36.232Z,"  81.38"
2019-04-29T08:52:36.177Z,"  80.80"
2019-04-29T08:53:36.184Z,"  80.71"
2019-04-29T08:54:37.200Z,"  79.68"
2019-04-29T08:55:36.465Z,"  79.69"
2019-04-29T08:56:36.249Z,"  79.06"
2019-04-29T08:57:36.625Z,"  78.55"
2019-04-29T08:58:39.156Z,"  78.48"
2019-04-29T08:59:37.104Z,"  78.71"
2019-04-29T09:00:36.166Z,"  78.58"
2019-04-29T09:01:36.495Z,"  78.11"
2019-04-29T09:02:36.168Z,"  77.58"
2019-04-29T09:03:40.344Z,"  76.35"
2019-04-29T09:04:36.166Z,"  76.49"
2019-04-29T09:05:36.169Z,"  75.91"
2019-04-29T09:06:36.163Z,"  76.66"
2019-04-29T09:07:36.201Z,"  76.80"
2019-04-29T09:08:36.192Z,"  76.85"
2019-04-29T09:09:36.153Z,"  76.33"
2019-04-29T09:10:36.732Z,"  76.22"
2019-04-29T09:11:36.157Z,"  75.80"
2019-04-29T09:12:36.141Z,"  76.59"
2019-04-29T09:13:36.189Z,"  76.45"
2019-04-29T09:14:36.252Z,"  76.34"
2019-04-29T09:15:36.238Z,"  74.05"
2019-04-29T09:16:36.145Z,"  74.13"
2019-04-29T09:17:36.153Z,"  74.38"
2019-04-29T09:18:36.160Z,"  74.45"
2019-04-29T09:19:39.275Z,"  75.30"
2019-04-29T09:20:36.159Z,"  75.30"
2019-04-29T09:21:36.182Z,"  74.82"
2019-04-29T09:22:36.518Z,"  75.23"
2019-04-29T09:23:36.166Z,"  74.87"
2019-04-29T09:24:36.281Z,"  75.35"
2019-04-29T09:25:36.141Z,"  74.77"
2019-04-29T09:26:36.161Z,"  73.80"
2019-04-29T09:27:36.145Z,"  74.43"
2019-04-29T09:28:36.127Z,"  74.70"
2019-04-29T09:29:36.177Z,"  74.17"
2019-04-29T09:30:38.593Z,"  74.31"
2019-04-29T09:31:36.174Z,"  74.73"
2019-04-29T09:32:38.149Z,"  75.52"
2019-04-29T09:33:36.173Z,"  74.86"
2019-04-29T09:34:36.106Z,"  74.69"
2019-04-29T09:35:38.655Z,"  73.69"
2019-04-29T09:36:36.234Z,"  74.40"
2019-04-29T09:37:36.162Z,"  75.11"
2019-04-29T09:38:36.932Z,"  74.70"
2019-04-29T09:39:42.868Z,"  74.29"
2019-04-29T09:40:36.116Z,"  73.13"
2019-04-29T09:41:36.161Z,"  73.04"
2019-04-29T09:42:36.178Z,"  72.96"
2019-04-29T09:43:36.168Z,"  73.13"
2019-04-29T09:44:40.391Z,"  73.27"
2019-04-29T09:45:36.086Z,"  72.89"
2019-04-29T09:46:36.084Z,"  72.54"
2019-04-29T09:47:36.162Z,"  72.18"
2019-04-29T09:48:36.098Z,"  71.51"
2019-04-29T09:49:36.099Z,"  71.32"
2019-04-29T09:50:39.277Z,"  70.79"
2019-04-29T09:51:36.079Z,"  70.84"
2019-04-29T09:52:36.193Z,"  71.17"
2019-04-29T09:53:36.097Z,"  71.28"
2019-04-29T09:54:36.079Z,"  71.05"
2019-04-29T09:55:39.922Z,"  70.12"
2019-04-29T09:56:36.098Z,"  69.96"
2019-04-29T09:57:36.074Z,"  69.55"
2019-04-29T09:58:36.074Z,"  70.01"
2019-04-29T09:59:36.163Z,"  69.65"
2019-04-29T10:00:36.226Z,"  69.76"
2019-04-29T10:01:36.088Z,"  69.73"
2019-04-29T10:02:36.133Z,"  69.53"
2019-04-29T10:03:36.066Z,"  69.93"
2019-04-29T10:04:36.118Z,"  69.83"
2019-04-29T10:05:36.319Z,"  69.64"
2019-04-29T10:06:36.145Z,"  69.76"
2019-04-29T10:07:36.090Z,"  68.55"
2019-04-29T10:08:36.094Z,"  67.86"
2019-04-29T10:09:36.106Z,"  68.08"
2019-04-29T10:10:37.413Z,"  67.67"
2019-04-29T10:11:36.074Z,"  67.54"
2019-04-29T10:12:36.061Z,"  68.19"
2019-04-29T10:13:36.079Z,"  69.36"
2019-04-29T10:14:36.635Z,"  68.58"
2019-04-29T10:15:36.054Z,"  68.69"
2019-04-29T10:16:37.072Z,"  67.53"
2019-04-29T10:17:36.045Z,"  68.34"
2019-04-29T10:18:36.075Z,"  68.41"
2019-04-29T10:19:36.030Z,"  68.17"
2019-04-29T10:20:36.069Z,"  68.25"
2019-04-29T10:21:36.082Z,"  68.64"
2019-04-29T10:22:36.090Z,"  68.53"
2019-04-29T10:23:36.076Z,"  68.85"
2019-04-29T10:24:36.050Z,"  68.15"
2019-04-29T10:25:36.025Z,"  68.51"
2019-04-29T10:26:36.087Z,"  68.27"
2019-04-29T10:27:36.209Z,"  68.50"
2019-04-29T10:28:36.050Z,"  68.79"
2019-04-29T10:29:36.047Z,"  68.64"
2019-04-29T10:30:36.079Z,"  68.27"
2019-04-29T10:31:36.141Z,"  67.66"
2019-04-29T10:32:37.804Z,"  67.92"
2019-04-29T10:33:36.098Z,"  68.05"
2019-04-29T10:34:36.029Z,"  68.04"
2019-04-29T10:35:36.028Z,"  68.22"
2019-04-29T10:36:36.069Z,"  68.63"
2019-04-29T10:37:36.017Z,"  67.62"
2019-04-29T10:38:36.015Z,"  68.59"
2019-04-29T10:39:36.007Z,"  68.24"
2019-04-29T10:40:36.012Z,"  69.20"
2019-04-29T10:41:39.842Z,"  68.53"
2019-04-29T10:42:36.057Z,"  68.52"
2019-04-29T10:43:36.015Z,"  67.76"
2019-04-29T10:44:37.599Z,"  67.57"
2019-04-29T10:45:35.997Z,"  67.88"
2019-04-29T10:46:36.039Z,"  68.10"
2019-04-29T10:47:35.998Z,"  68.05"
2019-04-29T10:48:36.051Z,"  68.00"
2019-04-29T10:49:39.165Z,"  68.20"
2019-04-29T10:50:36.017Z,"  68.46"
2019-04-29T10:51:36.137Z,"  67.91"
2019-04-29T10:52:38.560Z,"  67.46"
2019-04-29T10:53:36.038Z,"  67.88"
2019-04-29T10:54:35.992Z,"  67.42"
2019-04-29T10:55:35.980Z,"  67.09"
2019-04-29T10:56:39.370Z,"  66.86"
2019-04-29T10:57:35.998Z,"  64.58"
2019-04-29T10:58:36.002Z,"  65.34"
2019-04-29T10:59:36.381Z,"  66.01"
2019-04-29T11:00:35.994Z,"  66.75"
2019-04-29T11:01:35.976Z,"  66.19"
2019-04-29T11:02:36.027Z,"  66.04"
2019-04-29T11:03:36.030Z,"  66.35"
2019-04-29T11:04:37.894Z,"  66.56"
2019-04-29T11:05:35.997Z,"  65.00"
2019-04-29T11:06:36.979Z,"  64.67"
2019-04-29T11:07:35.997Z,"  64.33"
2019-04-29T11:08:38.149Z,"  63.88"
2019-04-29T11:09:35.977Z,"  64.87"
2019-04-29T11:10:36.102Z,"  63.85"
2019-04-29T11:11:36.017Z,"  64.94"
2019-04-29T11:12:35.958Z,"  64.30"
2019-04-29T11:13:35.961Z,"  63.69"
2019-04-29T11:14:37.647Z,"  62.69"
2019-04-29T11:15:35.994Z,"  61.41"
2019-04-29T11:16:46.291Z,"  62.41"
2019-04-29T11:17:39.581Z,"  62.63"
2019-04-29T11:18:35.956Z,"  62.94"
2019-04-29T11:19:39.917Z,"  61.92"
2019-04-29T11:20:36.007Z,"  62.83"
2019-04-29T11:21:38.781Z,"  63.25"
2019-04-29T11:22:38.294Z,"  61.19"
2019-04-29T11:23:35.957Z,"  61.17"
2019-04-29T11:24:36.068Z,"  61.05"